Virden, Arizona
Current Conditions -  °F | °C
As of 5:51 PM on Sunday 23 Nov 2014 (Local Time) from KSAD Reporting Station
Clear Clear  
Wind Chill: 56°   Ceiling: Unl
Heat Index: 56°   Visibility: 10mi
Dew Point: -8°   Wind: 17mph
Humidity: 7%   Direction: 320°NW
Pressure: 30.03"   Gusts: NA
Location:  32.7548°N, 109.14°W
Report Text: KSAD 240051Z AUTO 32015KT 10SM CLR 13/M22 A3003 RMK AO2 PK WND 33032/2357 SLP156 T01331222
Loading
Personal Weather Stations






























Interactive Weather Map New forecast layout! Learn more

10-Day Weather Forecast

Advertisements
Track Severe Weather on mobile